Time;durP1;ratioP1;P1;durP2;ratioP2;P2;SDS_P1;SDS_P2;PMS_P1;PMS_P2;Temp;Humidity;BMP_temperature;BMP_pressure;BME280_temperature;BME280_humidity;BME280_pressure;Samples;Min_cycle;Max_cycle;Signal;HPM_P1;HPM_P2
2021/01/05 00:00:35;;;;;;;;;;;3.30;99.90;;;;;;5015171;28;20020;-80
2021/01/05 00:03:01;;;;;;;;;;;3.30;99.90;;;;;;5015283;28;19914;-79
2021/01/05 00:05:26;;;;;;;;;;;3.30;99.90;;;;;;5007252;28;20009;-79
2021/01/05 00:07:52;;;;;;;;;;;3.20;99.90;;;;;;5015212;28;19917;-79
2021/01/05 00:10:18;;;;;;;;;;;3.20;99.90;;;;;;5015692;28;19917;-79
2021/01/05 00:12:44;;;;;;;;;;;3.20;99.90;;;;;;5015899;28;19937;-80
2021/01/05 00:15:10;;;;;;;;;;;3.20;99.90;;;;;;5013605;28;19919;-79
2021/01/05 00:17:36;;;;;;;;;;;3.30;99.90;;;;;;5015846;28;19910;-79
2021/01/05 00:20:07;;;;;;;;;;;3.30;99.90;;;;;;5013580;28;20370;-79
2021/01/05 00:22:32;;;;;;;;;;;3.30;99.90;;;;;;5015267;28;19935;-80
2021/01/05 00:24:58;;;;;;;;;;;3.30;99.90;;;;;;5014509;28;19913;-79
2021/01/05 00:27:23;;;;;;;;;;;3.30;99.90;;;;;;5016481;28;19963;-80
2021/01/05 00:29:49;;;;;;;;;;;3.30;99.90;;;;;;5014426;28;19913;-80
2021/01/05 00:32:16;;;;;;;;;;;3.30;99.90;;;;;;5013454;28;19913;-79
2021/01/05 00:34:42;;;;;;;;;;;3.40;99.90;;;;;;5014388;28;19917;-80
2021/01/05 00:37:08;;;;;;;;;;;3.40;99.90;;;;;;5014053;28;20466;-79
2021/01/05 00:39:33;;;;;;;;;;;3.40;99.90;;;;;;5015626;28;19989;-79
2021/01/05 00:41:59;;;;;;;;;;;3.40;99.90;;;;;;5013844;28;19914;-79
2021/01/05 00:44:24;;;;;;;;;;;3.40;99.90;;;;;;5015296;28;20293;-79
2021/01/05 00:46:50;;;;;;;;;;;3.40;99.90;;;;;;5013975;28;19924;-79
2021/01/05 00:49:15;;;;;;;;;;;3.40;99.90;;;;;;5015746;28;19945;-79
2021/01/05 00:51:41;;;;;;;;;;;3.40;99.90;;;;;;5015215;28;20444;-80
2021/01/05 00:54:06;;;;;;;;;;;3.40;99.90;;;;;;5014301;28;20346;-80
2021/01/05 00:56:32;;;;;;;;;;;3.30;99.90;;;;;;5060298;22;19924;-85
2021/01/05 00:58:57;;;;;;;;;;;3.30;99.90;;;;;;5062324;28;19919;-84
2021/01/05 01:01:23;;;;;;;;;;;3.30;99.90;;;;;;5057048;28;19913;-86
2021/01/05 01:03:49;;;;;;;;;;;3.30;99.90;;;;;;5046896;28;19984;-84
2021/01/05 01:06:14;;;;;;;;;;;3.30;99.90;;;;;;5053525;28;19913;-86
2021/01/05 01:08:40;;;;;;;;;;;3.40;99.90;;;;;;5041291;28;20070;-86
2021/01/05 01:11:05;;;;;;;;;;;3.40;99.90;;;;;;5054780;28;19997;-86
2021/01/05 01:13:31;;;;;;;;;;;3.40;99.90;;;;;;5040654;28;19913;-86
2021/01/05 01:15:56;;;;;;;;;;;3.40;99.90;;;;;;5035173;28;19921;-86
2021/01/05 01:18:22;;;;;;;;;;;3.40;99.90;;;;;;5034256;28;21844;-85
2021/01/05 01:20:47;;;;;;;;;;;3.30;99.90;;;;;;5034147;28;19963;-86
2021/01/05 01:23:13;;;;;;;;;;;3.40;99.90;;;;;;5036082;28;19917;-85
2021/01/05 01:25:38;;;;;;;;;;;3.40;99.90;;;;;;5034799;28;19915;-85
2021/01/05 01:28:04;;;;;;;;;;;3.40;99.90;;;;;;5033303;28;19917;-84
2021/01/05 01:30:29;;;;;;;;;;;3.40;99.90;;;;;;5035377;28;20024;-84
2021/01/05 01:32:55;;;;;;;;;;;3.40;99.90;;;;;;5032776;28;19933;-85
2021/01/05 01:35:20;;;;;;;;;;;3.40;99.90;;;;;;5039797;28;19935;-85
2021/01/05 01:37:46;;;;;;;;;;;3.40;99.90;;;;;;5040078;28;19920;-84
2021/01/05 01:40:12;;;;;;;;;;;3.40;99.90;;;;;;5042784;28;19996;-85
2021/01/05 01:42:37;;;;;;;;;;;3.40;99.90;;;;;;5041450;28;20004;-86
2021/01/05 01:45:04;;;;;;;;;;;3.40;99.90;;;;;;5023049;28;19909;-84
2021/01/05 01:47:33;;;;;;;;;;;3.40;99.90;;;;;;5053026;28;19936;-87
2021/01/05 01:50:01;;;;;;;;;;;3.40;99.90;;;;;;5042083;28;19917;-85
2021/01/05 01:52:29;;;;;;;;;;;3.40;99.90;;;;;;5042597;28;19920;-84
2021/01/05 01:54:55;;;;;;;;;;;3.40;99.90;;;;;;5045762;28;19918;-84
2021/01/05 01:57:39;;;;;;;;;;;3.40;99.90;;;;;;5038739;28;19917;-84
2021/01/05 02:00:19;;;;;;;;;;;3.40;99.90;;;;;;5039533;28;19917;-85
2021/01/05 02:02:57;;;;;;;;;;;3.40;99.90;;;;;;5039680;28;19909;-85
2021/01/05 02:05:31;;;;;;;;;;;3.40;99.90;;;;;;5035961;28;19972;-84
2021/01/05 02:08:00;;;;;;;;;;;3.40;99.90;;;;;;5018063;28;19910;-85
2021/01/05 02:10:32;;;;;;;;;;;3.40;99.90;;;;;;5018225;28;20527;-84
2021/01/05 02:13:04;;;;;;;;;;;3.40;99.90;;;;;;5042980;28;19913;-85
2021/01/05 02:15:36;;;;;;;;;;;3.40;99.90;;;;;;5042023;28;19919;-84
2021/01/05 02:18:12;;;;;;;;;;;3.40;99.90;;;;;;5044336;28;19914;-84
2021/01/05 02:20:41;;;;;;;;;;;3.40;99.90;;;;;;5044607;28;20350;-85
2021/01/05 02:23:13;;;;;;;;;;;3.40;99.90;;;;;;5043018;28;19917;-85
2021/01/05 02:25:47;;;;;;;;;;;3.40;99.90;;;;;;5043644;28;20401;-85
2021/01/05 02:28:14;;;;;;;;;;;3.40;99.90;;;;;;5042521;28;19913;-85
2021/01/05 02:30:42;;;;;;;;;;;3.40;99.90;;;;;;5043578;28;19913;-85
2021/01/05 02:33:10;;;;;;;;;;;3.40;99.90;;;;;;5043239;28;20340;-84
2021/01/05 02:35:35;;;;;;;;;;;3.40;99.90;;;;;;5041298;28;19973;-85
2021/01/05 02:38:30;;;;;;;;;;;3.40;99.90;;;;;;5041745;28;19978;-85
2021/01/05 02:40:59;;;;;;;;;;;3.40;99.90;;;;;;5036371;28;19921;-85
2021/01/05 02:43:43;;;;;;;;;;;3.40;99.90;;;;;;5041249;28;19917;-85
2021/01/05 02:46:12;;;;;;;;;;;3.40;99.90;;;;;;5039517;28;19919;-85
2021/01/05 02:48:53;;;;;;;;;;;3.40;99.90;;;;;;5040913;28;19909;-85
2021/01/05 02:51:25;;;;;;;;;;;3.40;99.90;;;;;;5040132;28;19913;-85
2021/01/05 02:53:50;;;;;;;;;;;3.40;99.90;;;;;;5041626;28;20401;-84
2021/01/05 02:56:28;;;;;;;;;;;3.40;99.90;;;;;;5039759;28;19971;-85
2021/01/05 02:59:05;;;;;;;;;;;3.30;99.90;;;;;;5040566;28;19920;-85
2021/01/05 03:01:49;;;;;;;;;;;3.30;99.90;;;;;;5041066;28;19916;-85
2021/01/05 03:04:14;;;;;;;;;;;3.30;99.90;;;;;;5039128;28;19967;-85
2021/01/05 03:06:50;;;;;;;;;;;3.30;99.90;;;;;;5039462;28;20365;-84
2021/01/05 03:09:26;;;;;;;;;;;3.30;99.90;;;;;;5041408;28;19932;-85
2021/01/05 03:12:02;;;;;;;;;;;3.30;99.90;;;;;;5039931;28;19909;-85
2021/01/05 03:14:43;;;;;;;;;;;3.20;99.90;;;;;;5038631;28;19917;-85
2021/01/05 03:17:20;;;;;;;;;;;3.30;99.90;;;;;;5039753;28;19910;-85
2021/01/05 03:20:01;;;;;;;;;;;3.30;99.90;;;;;;5041088;28;19972;-84
2021/01/05 03:22:28;;;;;;;;;;;3.30;99.90;;;;;;5038748;28;19967;-85
2021/01/05 03:24:54;;;;;;;;;;;3.30;99.90;;;;;;5039919;28;19909;-84
2021/01/05 03:27:20;;;;;;;;;;;3.30;99.90;;;;;;5040903;28;19909;-85
2021/01/05 03:29:46;;;;;;;;;;;3.40;99.90;;;;;;5041100;28;20404;-85
2021/01/05 03:32:11;;;;;;;;;;;3.40;99.90;;;;;;5038785;28;20012;-84
2021/01/05 03:34:37;;;;;;;;;;;3.40;99.90;;;;;;5035485;28;19917;-83
2021/01/05 03:37:02;;;;;;;;;;;3.40;99.90;;;;;;5019769;28;19913;-85
2021/01/05 03:39:28;;;;;;;;;;;3.40;99.90;;;;;;5029652;28;19909;-83
2021/01/05 03:41:53;;;;;;;;;;;3.40;99.90;;;;;;5040537;28;19909;-84
2021/01/05 03:44:19;;;;;;;;;;;3.50;99.90;;;;;;5039246;28;19910;-85
2021/01/05 03:46:44;;;;;;;;;;;3.50;99.90;;;;;;5041727;28;19913;-85
2021/01/05 03:49:10;;;;;;;;;;;3.50;99.90;;;;;;5041946;28;20003;-85
2021/01/05 03:51:35;;;;;;;;;;;3.40;99.90;;;;;;5038764;28;19917;-85
2021/01/05 03:54:01;;;;;;;;;;;3.40;99.90;;;;;;5039869;28;19917;-85
2021/01/05 03:56:26;;;;;;;;;;;3.40;99.90;;;;;;5040565;28;20317;-85
2021/01/05 03:58:51;;;;;;;;;;;3.40;99.90;;;;;;5042315;28;19913;-85
2021/01/05 04:01:17;;;;;;;;;;;3.40;99.90;;;;;;5040797;28;19941;-85
2021/01/05 04:03:43;;;;;;;;;;;3.40;99.90;;;;;;5041811;28;19913;-85
2021/01/05 04:06:09;;;;;;;;;;;3.40;99.90;;;;;;5040996;28;19910;-85
2021/01/05 04:08:34;;;;;;;;;;;3.40;99.90;;;;;;5040365;28;19921;-86
2021/01/05 04:11:00;;;;;;;;;;;3.40;99.90;;;;;;5040765;28;19980;-85
2021/01/05 04:13:25;;;;;;;;;;;3.40;99.90;;;;;;5040226;28;19925;-85
2021/01/05 04:15:51;;;;;;;;;;;3.40;99.90;;;;;;5041186;28;20301;-85
2021/01/05 04:18:16;;;;;;;;;;;3.40;99.90;;;;;;5040371;28;19913;-85
2021/01/05 04:20:42;;;;;;;;;;;3.40;99.90;;;;;;5042227;28;19909;-85
2021/01/05 04:23:07;;;;;;;;;;;3.40;99.90;;;;;;5042134;28;19914;-86
2021/01/05 04:25:33;;;;;;;;;;;3.40;99.90;;;;;;5038102;28;19920;-84
2021/01/05 04:27:58;;;;;;;;;;;3.40;99.90;;;;;;5038878;28;19928;-85
2021/01/05 04:30:26;;;;;;;;;;;3.40;99.90;;;;;;5040350;28;19913;-85
2021/01/05 04:32:52;;;;;;;;;;;3.40;99.90;;;;;;5039500;28;19909;-85
2021/01/05 04:35:19;;;;;;;;;;;3.40;99.90;;;;;;5037868;28;19917;-85
2021/01/05 04:37:44;;;;;;;;;;;3.40;99.90;;;;;;5042714;28;19935;-85
2021/01/05 04:40:20;;;;;;;;;;;3.40;99.90;;;;;;5041317;28;19909;-85
2021/01/05 04:42:47;;;;;;;;;;;3.30;99.90;;;;;;5040723;28;20075;-83
2021/01/05 04:45:16;;;;;;;;;;;3.30;99.90;;;;;;5049018;28;20324;-86
2021/01/05 04:48:01;;;;;;;;;;;3.30;99.90;;;;;;5037514;28;20543;-85
2021/01/05 04:50:27;;;;;;;;;;;3.30;99.90;;;;;;5039138;28;19909;-85
2021/01/05 04:53:02;;;;;;;;;;;3.30;99.90;;;;;;5039877;28;19909;-85
2021/01/05 04:55:36;;;;;;;;;;;3.30;99.90;;;;;;5039016;28;19972;-85
2021/01/05 04:58:03;;;;;;;;;;;3.30;99.90;;;;;;5038999;28;19921;-85
2021/01/05 05:00:29;;;;;;;;;;;3.30;99.90;;;;;;5038735;28;20405;-84
2021/01/05 05:03:07;;;;;;;;;;;3.30;99.90;;;;;;5039947;28;19928;-84
2021/01/05 05:05:43;;;;;;;;;;;3.20;99.90;;;;;;5039034;28;19980;-85
2021/01/05 05:08:24;;;;;;;;;;;3.20;99.90;;;;;;5038392;28;19909;-85
2021/01/05 05:10:53;;;;;;;;;;;3.20;99.90;;;;;;5041121;28;19913;-85
2021/01/05 05:13:37;;;;;;;;;;;3.30;99.90;;;;;;5044274;28;19923;-84
2021/01/05 05:16:21;;;;;;;;;;;3.30;99.90;;;;;;5037006;28;19940;-84
2021/01/05 05:18:50;;;;;;;;;;;3.30;99.90;;;;;;5036264;28;19945;-85
2021/01/05 05:21:18;;;;;;;;;;;3.30;99.90;;;;;;5036946;28;19924;-85
2021/01/05 05:23:50;;;;;;;;;;;3.30;99.90;;;;;;5036760;28;20340;-85
2021/01/05 05:26:23;;;;;;;;;;;3.30;99.90;;;;;;5035957;28;19921;-85
2021/01/05 05:28:48;;;;;;;;;;;3.30;99.90;;;;;;5035713;28;19913;-83
2021/01/05 05:31:17;;;;;;;;;;;3.30;99.90;;;;;;5037882;28;20474;-85
2021/01/05 05:33:43;;;;;;;;;;;3.30;99.90;;;;;;5036098;28;20376;-83
2021/01/05 05:36:19;;;;;;;;;;;3.40;99.90;;;;;;5034084;28;20446;-84
2021/01/05 05:39:19;;;;;;;;;;;3.40;99.90;;;;;;5037298;28;19913;-85
2021/01/05 05:41:51;;;;;;;;;;;3.40;99.90;;;;;;4960331;28;19916;-85
2021/01/05 05:44:26;;;;;;;;;;;3.40;99.90;;;;;;5027573;28;19909;-86
2021/01/05 05:47:03;;;;;;;;;;;3.30;99.90;;;;;;5037944;28;19909;-83
2021/01/05 05:49:29;;;;;;;;;;;3.40;99.90;;;;;;5036829;28;19939;-85
2021/01/05 05:51:58;;;;;;;;;;;3.40;99.90;;;;;;5036776;28;19909;-85
2021/01/05 05:54:24;;;;;;;;;;;3.40;99.90;;;;;;5035161;28;19917;-84
2021/01/05 05:57:08;;;;;;;;;;;3.40;99.90;;;;;;5037995;28;19917;-84
2021/01/05 05:59:54;;;;;;;;;;;3.40;99.90;;;;;;5036706;28;20023;-85
2021/01/05 06:02:20;;;;;;;;;;;3.40;99.90;;;;;;5037530;28;19913;-85
2021/01/05 06:04:47;;;;;;;;;;;3.40;99.90;;;;;;5038622;28;20023;-84
2021/01/05 06:07:12;;;;;;;;;;;3.40;99.90;;;;;;5036858;28;19957;-84
2021/01/05 06:09:38;;;;;;;;;;;3.40;99.90;;;;;;5037919;28;19913;-85
2021/01/05 06:12:05;;;;;;;;;;;3.40;99.90;;;;;;5037705;28;19910;-85
2021/01/05 06:14:30;;;;;;;;;;;3.40;99.90;;;;;;5036856;28;19917;-85
2021/01/05 06:16:56;;;;;;;;;;;3.40;99.90;;;;;;5039284;28;19916;-85
2021/01/05 06:19:21;;;;;;;;;;;3.40;99.90;;;;;;5036707;28;19966;-84
2021/01/05 06:21:47;;;;;;;;;;;3.40;99.90;;;;;;5038160;28;19913;-85
2021/01/05 06:24:12;;;;;;;;;;;3.40;99.90;;;;;;5031344;28;19913;-85
2021/01/05 06:26:38;;;;;;;;;;;3.40;99.90;;;;;;5018865;28;19968;-86
2021/01/05 06:29:03;;;;;;;;;;;3.40;99.90;;;;;;5026974;28;20004;-82
2021/01/05 06:31:29;;;;;;;;;;;3.40;99.90;;;;;;5036943;28;19913;-85
2021/01/05 06:33:54;;;;;;;;;;;3.40;99.90;;;;;;5043412;28;20386;-85
2021/01/05 06:36:20;;;;;;;;;;;3.40;99.90;;;;;;5036692;28;19999;-85
2021/01/05 06:38:46;;;;;;;;;;;3.40;99.90;;;;;;5036994;28;19921;-85
2021/01/05 06:41:12;;;;;;;;;;;3.30;99.90;;;;;;5036924;28;19979;-85
2021/01/05 06:43:37;;;;;;;;;;;3.40;99.90;;;;;;5038446;28;19913;-85
2021/01/05 06:46:03;;;;;;;;;;;3.40;99.90;;;;;;5037147;28;19913;-85
2021/01/05 06:48:28;;;;;;;;;;;3.40;99.90;;;;;;5036156;28;20003;-85
2021/01/05 06:50:54;;;;;;;;;;;3.40;99.90;;;;;;5036878;28;19952;-84
2021/01/05 06:53:19;;;;;;;;;;;3.40;99.90;;;;;;5038187;28;19921;-85
2021/01/05 06:55:45;;;;;;;;;;;3.40;99.90;;;;;;5037900;28;19956;-85
2021/01/05 06:58:10;;;;;;;;;;;3.40;99.90;;;;;;5085337;22;20350;-80
2021/01/05 07:00:35;;;;;;;;;;;3.40;99.90;;;;;;5077971;28;19920;-78
2021/01/05 07:03:01;;;;;;;;;;;3.40;99.90;;;;;;5079268;28;20003;-80
2021/01/05 07:05:26;;;;;;;;;;;3.40;99.90;;;;;;5076180;28;19913;-80
2021/01/05 07:07:52;;;;;;;;;;;3.30;99.90;;;;;;5067726;28;19952;-80
2021/01/05 07:10:18;;;;;;;;;;;3.40;99.90;;;;;;5058838;28;19913;-80
2021/01/05 07:12:45;;;;;;;;;;;3.40;99.90;;;;;;5059166;28;19967;-80
2021/01/05 07:15:11;;;;;;;;;;;3.40;99.90;;;;;;5057929;28;19924;-80
2021/01/05 07:17:36;;;;;;;;;;;3.40;99.90;;;;;;5058119;28;19919;-80
2021/01/05 07:20:06;;;;;;;;;;;3.40;99.90;;;;;;5058567;28;19909;-80
2021/01/05 07:22:32;;;;;;;;;;;3.50;99.90;;;;;;5052710;28;19920;-80
2021/01/05 07:24:57;;;;;;;;;;;3.50;99.90;;;;;;5041528;28;19944;-80
2021/01/05 07:27:22;;;;;;;;;;;3.60;99.90;;;;;;5040313;28;19912;-80
2021/01/05 07:29:48;;;;;;;;;;;3.60;99.90;;;;;;5057802;28;20009;-80
2021/01/05 07:32:13;;;;;;;;;;;3.60;99.90;;;;;;5058011;28;20420;-80
2021/01/05 07:34:39;;;;;;;;;;;3.60;99.90;;;;;;5051169;28;19967;-80
2021/01/05 07:37:07;;;;;;;;;;;3.60;99.90;;;;;;5039675;28;19920;-79
2021/01/05 07:39:33;;;;;;;;;;;3.60;99.90;;;;;;5055801;28;19919;-79
2021/01/05 07:42:18;;;;;;;;;;;3.60;99.90;;;;;;5056673;28;19916;-79
2021/01/05 07:44:44;;;;;;;;;;;3.60;99.90;;;;;;5056259;28;19920;-79
2021/01/05 07:47:10;;;;;;;;;;;3.70;99.90;;;;;;5057951;28;19987;-79
2021/01/05 07:49:36;;;;;;;;;;;3.70;99.90;;;;;;5057336;28;19993;-80
2021/01/05 07:52:01;;;;;;;;;;;3.70;99.90;;;;;;5057801;28;19935;-80
2021/01/05 07:54:27;;;;;;;;;;;3.70;99.90;;;;;;5055626;28;19921;-81
2021/01/05 07:56:52;;;;;;;;;;;3.70;99.90;;;;;;5056623;28;19912;-80
2021/01/05 07:59:18;;;;;;;;;;;3.70;99.90;;;;;;5056969;28;19943;-80
2021/01/05 08:01:44;;;;;;;;;;;3.70;99.90;;;;;;5057273;28;19909;-79
2021/01/05 08:04:10;;;;;;;;;;;3.70;99.90;;;;;;5048934;28;19921;-80
2021/01/05 08:06:39;;;;;;;;;;;3.70;99.90;;;;;;5038105;28;19924;-80
2021/01/05 08:09:05;;;;;;;;;;;3.70;99.90;;;;;;5048384;28;20373;-80
2021/01/05 08:11:34;;;;;;;;;;;3.80;99.90;;;;;;5051689;28;20050;-79
2021/01/05 08:13:59;;;;;;;;;;;3.80;99.90;;;;;;5052481;28;19928;-79
2021/01/05 08:16:25;;;;;;;;;;;3.80;99.90;;;;;;5056211;28;20090;-80
2021/01/05 08:18:50;;;;;;;;;;;3.90;99.90;;;;;;5046877;28;19959;-80
2021/01/05 08:21:21;;;;;;;;;;;3.90;99.90;;;;;;5048794;28;19920;-79
2021/01/05 08:23:46;;;;;;;;;;;3.90;99.90;;;;;;5049581;28;19912;-80
2021/01/05 08:26:12;;;;;;;;;;;4.00;99.90;;;;;;5056771;28;19984;-80
2021/01/05 08:28:37;;;;;;;;;;;4.00;99.90;;;;;;5057138;28;19916;-80
2021/01/05 08:31:03;;;;;;;;;;;4.10;99.90;;;;;;5056272;28;19948;-80
2021/01/05 08:33:28;;;;;;;;;;;4.10;99.90;;;;;;5060104;28;19922;-79
2021/01/05 08:35:54;;;;;;;;;;;4.20;99.90;;;;;;5058243;28;20281;-79
2021/01/05 08:38:19;;;;;;;;;;;4.20;99.90;;;;;;5055959;28;19917;-79
2021/01/05 08:40:44;;;;;;;;;;;4.20;99.90;;;;;;5052660;28;19909;-80
2021/01/05 08:43:10;;;;;;;;;;;4.20;99.90;;;;;;5038629;28;19909;-79
2021/01/05 08:45:39;;;;;;;;;;;4.10;99.90;;;;;;5055648;28;20339;-79
2021/01/05 08:48:04;;;;;;;;;;;4.10;99.90;;;;;;5054244;28;19913;-80
2021/01/05 08:50:32;;;;;;;;;;;4.10;99.90;;;;;;5055595;28;20454;-80
2021/01/05 08:52:58;;;;;;;;;;;4.20;99.90;;;;;;5054865;28;19913;-79
2021/01/05 08:55:24;;;;;;;;;;;4.20;99.90;;;;;;5054287;28;19916;-79
2021/01/05 08:57:50;;;;;;;;;;;4.20;99.90;;;;;;5054091;28;20271;-79
2021/01/05 09:00:15;;;;;;;;;;;4.30;99.90;;;;;;5053900;28;19917;-79
2021/01/05 09:02:41;;;;;;;;;;;4.30;99.90;;;;;;5054524;28;20347;-79
2021/01/05 09:05:07;;;;;;;;;;;4.30;99.90;;;;;;5052605;28;19952;-79
2021/01/05 09:07:32;;;;;;;;;;;4.30;99.90;;;;;;5052888;28;20403;-82
2021/01/05 09:09:58;;;;;;;;;;;4.30;99.90;;;;;;5053140;28;19939;-80
2021/01/05 09:12:23;;;;;;;;;;;4.30;99.90;;;;;;5054105;28;19909;-79
2021/01/05 09:14:48;;;;;;;;;;;4.30;99.90;;;;;;5052346;28;19928;-79
2021/01/05 09:17:16;;;;;;;;;;;4.30;99.90;;;;;;5054346;28;19954;-79
2021/01/05 09:19:41;;;;;;;;;;;4.20;99.90;;;;;;5052048;28;20274;-79
2021/01/05 09:22:07;;;;;;;;;;;4.30;99.90;;;;;;5052166;28;19920;-79
2021/01/05 09:24:32;;;;;;;;;;;4.30;99.90;;;;;;5051572;28;19996;-81
2021/01/05 09:26:58;;;;;;;;;;;4.30;99.90;;;;;;5055126;28;19961;-81
2021/01/05 09:29:24;;;;;;;;;;;4.30;99.90;;;;;;5053380;28;20408;-80
2021/01/05 09:31:51;;;;;;;;;;;4.40;99.90;;;;;;5054931;28;20295;-80
2021/01/05 09:34:18;;;;;;;;;;;4.40;99.90;;;;;;5052728;28;20289;-80
2021/01/05 09:36:43;;;;;;;;;;;4.50;99.90;;;;;;5047152;28;19920;-80
2021/01/05 09:39:10;;;;;;;;;;;4.50;99.90;;;;;;5050304;28;19913;-80
2021/01/05 09:41:37;;;;;;;;;;;4.60;99.90;;;;;;5052265;28;19936;-80
2021/01/05 09:44:03;;;;;;;;;;;4.60;99.90;;;;;;5052193;28;19999;-80
2021/01/05 09:46:28;;;;;;;;;;;4.70;99.90;;;;;;5068110;28;19940;-79
2021/01/05 09:48:54;;;;;;;;;;;4.70;99.90;;;;;;5050057;28;19960;-78
2021/01/05 09:51:20;;;;;;;;;;;4.70;99.90;;;;;;5051098;28;19920;-78
2021/01/05 09:53:46;;;;;;;;;;;4.70;99.90;;;;;;5049589;28;20331;-78
2021/01/05 09:56:11;;;;;;;;;;;4.70;99.90;;;;;;5051883;28;19917;-78
2021/01/05 09:58:37;;;;;;;;;;;4.60;99.90;;;;;;5052645;28;19924;-79
2021/01/05 10:01:02;;;;;;;;;;;4.60;99.90;;;;;;5049487;28;19913;-79
2021/01/05 10:03:28;;;;;;;;;;;4.60;99.90;;;;;;5051714;28;19916;-79
2021/01/05 10:05:53;;;;;;;;;;;4.50;99.90;;;;;;5052787;28;19908;-79
2021/01/05 10:08:18;;;;;;;;;;;4.50;99.90;;;;;;5052489;28;19999;-79
2021/01/05 10:10:44;;;;;;;;;;;4.40;99.90;;;;;;5052640;28;19916;-78
2021/01/05 10:13:09;;;;;;;;;;;4.40;99.90;;;;;;5051873;28;20062;-79
2021/01/05 10:15:35;;;;;;;;;;;4.40;99.90;;;;;;5053290;28;19923;-79
2021/01/05 10:18:04;;;;;;;;;;;4.40;99.90;;;;;;5050716;28;19956;-78
2021/01/05 10:20:29;;;;;;;;;;;4.40;99.90;;;;;;5052610;28;20000;-78
2021/01/05 10:22:55;;;;;;;;;;;4.40;99.90;;;;;;5053495;28;19947;-78
2021/01/05 10:25:21;;;;;;;;;;;4.40;99.90;;;;;;5051781;28;20580;-78
2021/01/05 10:27:46;;;;;;;;;;;4.30;99.90;;;;;;5053239;28;20007;-78
2021/01/05 10:30:12;;;;;;;;;;;4.40;99.90;;;;;;5052513;28;19943;-79
2021/01/05 10:32:37;;;;;;;;;;;4.40;99.90;;;;;;5049570;28;20003;-78
2021/01/05 10:35:03;;;;;;;;;;;4.40;99.90;;;;;;5054668;28;20392;-78
2021/01/05 10:37:29;;;;;;;;;;;4.40;99.90;;;;;;5055791;28;19975;-78
2021/01/05 10:39:54;;;;;;;;;;;4.40;99.90;;;;;;5055331;28;19948;-78
2021/01/05 10:42:20;;;;;;;;;;;4.50;99.90;;;;;;5050173;28;19927;-78
2021/01/05 10:44:45;;;;;;;;;;;4.50;99.90;;;;;;5053047;28;19913;-78
2021/01/05 10:47:14;;;;;;;;;;;4.50;99.90;;;;;;5052770;28;20376;-79
2021/01/05 10:49:40;;;;;;;;;;;4.50;99.90;;;;;;5049148;28;20289;-78
2021/01/05 10:52:05;;;;;;;;;;;4.50;99.90;;;;;;5052384;28;19970;-78
2021/01/05 10:54:31;;;;;;;;;;;4.50;99.90;;;;;;5055910;28;19967;-78
2021/01/05 10:56:58;;;;;;;;;;;4.50;99.90;;;;;;5055292;28;19913;-78
2021/01/05 10:59:23;;;;;;;;;;;4.50;99.90;;;;;;5045961;28;19913;-78
2021/01/05 11:01:49;;;;;;;;;;;4.50;99.90;;;;;;5054570;28;20408;-79
2021/01/05 11:04:14;;;;;;;;;;;4.50;99.90;;;;;;5054341;28;19959;-78
2021/01/05 11:06:49;;;;;;;;;;;4.60;99.90;;;;;;5049625;28;19989;-78
2021/01/05 11:09:14;;;;;;;;;;;4.60;99.90;;;;;;5054684;28;20014;-78
2021/01/05 11:11:40;;;;;;;;;;;4.60;99.90;;;;;;5044572;28;19913;-78
2021/01/05 11:14:05;;;;;;;;;;;4.70;99.90;;;;;;5042288;28;20312;-78
2021/01/05 11:16:31;;;;;;;;;;;4.80;99.90;;;;;;5049139;28;20296;-78
2021/01/05 11:18:56;;;;;;;;;;;4.90;99.90;;;;;;5053584;28;19932;-79
2021/01/05 11:21:21;;;;;;;;;;;5.00;99.90;;;;;;5056859;28;19916;-78
2021/01/05 11:23:47;;;;;;;;;;;5.00;99.90;;;;;;5051809;28;19919;-78
2021/01/05 11:26:13;;;;;;;;;;;5.00;99.90;;;;;;5045755;28;19978;-78
2021/01/05 11:28:38;;;;;;;;;;;5.00;99.90;;;;;;5052609;28;19958;-78
2021/01/05 11:31:05;;;;;;;;;;;5.10;99.90;;;;;;5054773;28;19924;-79
2021/01/05 11:33:31;;;;;;;;;;;5.00;99.90;;;;;;5053886;28;19912;-78
2021/01/05 11:35:56;;;;;;;;;;;5.00;99.90;;;;;;5053214;28;19917;-78
2021/01/05 11:38:22;;;;;;;;;;;5.00;99.90;;;;;;5051628;28;20380;-78
2021/01/05 11:40:47;;;;;;;;;;;5.00;99.90;;;;;;5055573;28;20409;-78
2021/01/05 11:43:13;;;;;;;;;;;5.00;99.90;;;;;;5054575;28;19928;-80
2021/01/05 11:45:38;;;;;;;;;;;4.90;99.90;;;;;;5054408;28;20324;-80
2021/01/05 11:48:04;;;;;;;;;;;4.90;99.90;;;;;;5054689;28;19913;-79
2021/01/05 11:50:29;;;;;;;;;;;4.80;99.90;;;;;;5054949;28;19920;-80
2021/01/05 11:52:55;;;;;;;;;;;4.80;99.90;;;;;;5052506;28;19956;-79
2021/01/05 11:55:20;;;;;;;;;;;4.80;99.90;;;;;;5050756;28;19932;-80
2021/01/05 11:57:46;;;;;;;;;;;4.90;99.90;;;;;;5052122;28;19916;-80
2021/01/05 12:00:15;;;;;;;;;;;5.00;99.90;;;;;;5053200;28;19913;-80
2021/01/05 12:02:41;;;;;;;;;;;5.00;99.90;;;;;;5044049;28;19909;-80
2021/01/05 12:05:07;;;;;;;;;;;5.00;99.90;;;;;;5057959;28;19958;-80
2021/01/05 12:07:32;;;;;;;;;;;5.00;99.90;;;;;;5054465;28;19917;-79
2021/01/05 12:09:58;;;;;;;;;;;4.90;99.90;;;;;;5047203;28;19913;-79
2021/01/05 12:12:23;;;;;;;;;;;4.90;99.90;;;;;;5067684;28;19962;-79
2021/01/05 12:14:49;;;;;;;;;;;4.90;99.90;;;;;;5049320;28;20357;-79
2021/01/05 12:17:14;;;;;;;;;;;5.00;99.90;;;;;;5055519;28;20280;-79
2021/01/05 12:19:46;;;;;;;;;;;5.00;99.90;;;;;;5039357;28;19914;-79
2021/01/05 12:22:12;;;;;;;;;;;5.00;99.90;;;;;;5046725;28;19936;-79
2021/01/05 12:24:38;;;;;;;;;;;5.00;99.90;;;;;;5042694;28;19917;-79
2021/01/05 12:27:05;;;;;;;;;;;4.90;99.90;;;;;;5052136;28;20334;-79
2021/01/05 12:29:32;;;;;;;;;;;4.90;99.90;;;;;;5053290;28;19913;-79
2021/01/05 12:32:00;;;;;;;;;;;4.80;99.90;;;;;;5051923;28;20450;-79
2021/01/05 12:34:26;;;;;;;;;;;4.80;99.90;;;;;;5049984;28;19927;-77
2021/01/05 12:36:52;;;;;;;;;;;4.70;99.90;;;;;;5051445;28;20393;-79
2021/01/05 12:39:19;;;;;;;;;;;4.60;99.90;;;;;;5038463;28;19952;-79
2021/01/05 12:41:45;;;;;;;;;;;4.60;99.90;;;;;;5049977;28;19917;-79
2021/01/05 12:44:13;;;;;;;;;;;4.60;99.90;;;;;;5052168;28;19966;-79
2021/01/05 12:46:38;;;;;;;;;;;4.50;99.90;;;;;;5049545;28;20438;-79
2021/01/05 12:49:05;;;;;;;;;;;4.50;99.90;;;;;;5045204;28;19916;-79
2021/01/05 12:51:40;;;;;;;;;;;4.40;99.90;;;;;;5043383;28;19916;-79
2021/01/05 12:54:07;;;;;;;;;;;4.40;99.90;;;;;;5051865;28;19924;-79
2021/01/05 12:56:33;;;;;;;;;;;4.40;99.90;;;;;;5049798;28;20352;-80
2021/01/05 12:58:59;;;;;;;;;;;4.40;99.90;;;;;;5077536;22;19970;-81
2021/01/05 13:01:24;;;;;;;;;;;4.40;99.90;;;;;;5051204;28;19944;-82
2021/01/05 13:03:50;;;;;;;;;;;4.40;99.90;;;;;;5055491;28;19909;-84
2021/01/05 13:06:16;;;;;;;;;;;4.40;99.90;;;;;;5049736;28;19916;-83
2021/01/05 13:08:42;;;;;;;;;;;4.40;99.90;;;;;;5053869;28;20344;-83
2021/01/05 13:11:09;;;;;;;;;;;4.40;99.90;;;;;;5044151;28;19913;-81
2021/01/05 13:13:34;;;;;;;;;;;4.40;99.90;;;;;;5034555;28;19913;-83
2021/01/05 13:16:00;;;;;;;;;;;4.40;99.90;;;;;;5031241;28;20411;-82
2021/01/05 13:18:26;;;;;;;;;;;4.50;99.90;;;;;;5033275;28;19999;-81
2021/01/05 13:20:51;;;;;;;;;;;4.50;99.90;;;;;;5032017;28;20400;-82
2021/01/05 13:23:17;;;;;;;;;;;4.50;99.90;;;;;;5034252;28;20281;-82
2021/01/05 13:25:42;;;;;;;;;;;4.50;99.90;;;;;;5035812;28;19920;-82
2021/01/05 13:28:07;;;;;;;;;;;4.50;99.90;;;;;;5030535;28;19916;-81
2021/01/05 13:30:33;;;;;;;;;;;4.50;99.90;;;;;;5043410;28;19986;-82
2021/01/05 13:32:58;;;;;;;;;;;4.50;99.90;;;;;;5025888;28;19913;-81
2021/01/05 13:35:24;;;;;;;;;;;4.50;99.90;;;;;;5030192;28;20375;-81
2021/01/05 13:37:49;;;;;;;;;;;4.40;99.90;;;;;;5034169;28;19979;-81
2021/01/05 13:40:15;;;;;;;;;;;4.40;99.90;;;;;;5036940;28;19959;-81
2021/01/05 13:42:40;;;;;;;;;;;4.40;99.90;;;;;;5058071;28;20250;-82
2021/01/05 13:45:06;;;;;;;;;;;4.40;99.90;;;;;;5050179;28;19913;-83
2021/01/05 13:47:32;;;;;;;;;;;4.40;99.90;;;;;;5026671;28;19914;-83
2021/01/05 13:49:57;;;;;;;;;;;4.30;99.90;;;;;;5032353;28;20388;-82
2021/01/05 13:52:26;;;;;;;;;;;4.30;99.90;;;;;;5028937;28;19976;-81
2021/01/05 13:54:52;;;;;;;;;;;4.30;99.90;;;;;;5028049;28;19921;-82
2021/01/05 13:57:24;;;;;;;;;;;4.30;99.90;;;;;;5037109;28;20335;-81
2021/01/05 13:59:51;;;;;;;;;;;4.30;99.90;;;;;;5033561;28;20285;-81
2021/01/05 14:02:19;;;;;;;;;;;4.30;99.90;;;;;;5043216;28;19920;-84
2021/01/05 14:04:45;;;;;;;;;;;4.30;99.90;;;;;;5038872;28;19913;-83
2021/01/05 14:07:11;;;;;;;;;;;4.30;99.90;;;;;;5041401;28;19913;-80
2021/01/05 14:09:37;;;;;;;;;;;4.30;99.90;;;;;;5035145;28;19917;-82
2021/01/05 14:12:03;;;;;;;;;;;4.30;99.90;;;;;;5028667;28;19920;-80
2021/01/05 14:14:28;;;;;;;;;;;4.30;99.90;;;;;;5033463;28;19968;-79
2021/01/05 14:16:55;;;;;;;;;;;4.30;99.90;;;;;;5020113;28;20397;-80
2021/01/05 14:19:21;;;;;;;;;;;4.30;99.90;;;;;;5037043;28;19909;-81
2021/01/05 14:21:47;;;;;;;;;;;4.30;99.90;;;;;;5025390;28;20020;-79
2021/01/05 14:24:15;;;;;;;;;;;4.30;99.90;;;;;;5020655;28;19932;-81
2021/01/05 14:26:40;;;;;;;;;;;4.20;99.90;;;;;;5036759;28;19996;-81
2021/01/05 14:29:05;;;;;;;;;;;4.10;99.90;;;;;;5038483;28;19979;-81
2021/01/05 14:31:31;;;;;;;;;;;4.10;99.90;;;;;;5021959;28;19964;-82